createdAt,value
2023-03-22T00:01:10.433Z,7.24
2023-03-22T00:06:17.469Z,8.22
2023-03-22T00:11:24.305Z,7.82
2023-03-22T00:16:28.550Z,8.16
2023-03-22T00:21:34.021Z,7.03
2023-03-22T00:26:38.339Z,7.76
2023-03-22T00:31:43.173Z,6.62
2023-03-22T00:36:49.372Z,5.63
2023-03-22T00:41:53.488Z,7.06
2023-03-22T00:46:57.603Z,6.11
2023-03-22T00:52:03.093Z,6.45
2023-03-22T00:57:07.953Z,5.32
2023-03-22T01:02:13.769Z,5.76
2023-03-22T01:07:21.533Z,5.19
2023-03-22T01:12:26.054Z,5.83
2023-03-22T01:17:30.151Z,6.15
2023-03-22T01:22:35.598Z,5.10
2023-03-22T01:27:40.065Z,5.85
2023-03-22T01:32:44.140Z,4.52
2023-03-22T01:37:49.827Z,5.30
2023-03-22T01:42:55.168Z,5.57
2023-03-22T01:48:03.207Z,5.10
2023-03-22T01:53:19.061Z,5.75
2023-03-22T01:58:24.576Z,5.29
2023-03-22T02:03:39.245Z,5.78
2023-03-22T02:08:45.648Z,6.21
2023-03-22T02:14:11.786Z,6.03
2023-03-22T02:20:12.618Z,6.25
2023-03-22T02:26:04.955Z,6.32
2023-03-22T02:31:25.546Z,6.91
2023-03-22T02:36:59.657Z,6.44
2023-03-22T02:42:17.873Z,6.39
2023-03-22T02:47:26.166Z,6.18
2023-03-22T02:52:39.586Z,5.15
2023-03-22T02:57:49.579Z,5.69
2023-03-22T03:03:00.137Z,6.26
2023-03-22T03:08:05.771Z,5.68
2023-03-22T03:13:16.290Z,3.48
2023-03-22T03:18:35.882Z,4.27
2023-03-22T03:23:50.438Z,5.45
2023-03-22T03:29:02.018Z,4.65
2023-03-22T03:34:14.833Z,3.65
2023-03-22T03:39:22.140Z,4.09
2023-03-22T03:44:31.760Z,4.37
2023-03-22T03:49:36.623Z,3.79
2023-03-22T03:54:42.852Z,3.79
2023-03-22T03:59:53.796Z,5.89
2023-03-22T04:05:18.127Z,5.25
2023-03-22T04:10:22.396Z,5.87
2023-03-22T04:15:28.089Z,6.45
2023-03-22T04:20:35.457Z,6.99
2023-03-22T04:25:39.693Z,6.69
2023-03-22T04:30:52.002Z,6.45
2023-03-22T04:36:31.301Z,6.14
2023-03-22T04:42:00.853Z,6.48
2023-03-22T04:47:06.981Z,5.12
2023-03-22T04:52:12.038Z,6.00
2023-03-22T04:57:18.348Z,6.67
2023-03-22T05:02:26.960Z,6.64
2023-03-22T05:07:32.329Z,6.91
2023-03-22T05:12:38.827Z,6.77
2023-03-22T05:18:10.493Z,7.11
2023-03-22T05:23:19.242Z,7.50
2023-03-22T05:28:28.675Z,7.21
2023-03-22T05:33:56.457Z,7.64
2023-03-22T05:39:04.869Z,6.84
2023-03-22T05:44:09.456Z,6.88
2023-03-22T05:49:19.099Z,7.44
2023-03-22T05:54:23.270Z,7.06
2023-03-22T05:59:28.871Z,6.98
2023-03-22T06:04:34.699Z,7.23
2023-03-22T06:09:45.052Z,6.64
2023-03-22T06:14:53.816Z,6.92
2023-03-22T06:20:19.777Z,6.97
2023-03-22T06:25:30.728Z,7.00
2023-03-22T06:30:35.664Z,6.58
2023-03-22T06:36:05.553Z,7.76
2023-03-22T06:41:38.917Z,7.06
2023-03-22T06:46:43.112Z,7.66
2023-03-22T06:51:58.552Z,7.34
2023-03-22T06:57:03.426Z,7.15
2023-03-22T07:02:07.821Z,7.88
2023-03-22T07:07:13.573Z,7.81
2023-03-22T07:12:18.779Z,7.66
2023-03-22T07:17:24.367Z,7.70
2023-03-22T07:22:30.701Z,7.85
2023-03-22T07:27:34.883Z,8.40
2023-03-22T07:32:41.296Z,8.41
2023-03-22T07:37:52.865Z,8.74
2023-03-22T07:43:03.245Z,8.92
2023-03-22T07:48:28.941Z,8.96
2023-03-22T07:53:57.692Z,8.61
2023-03-22T07:59:02.200Z,10.27
2023-03-22T08:04:06.885Z,10.09
2023-03-22T08:09:35.374Z,8.87
2023-03-22T08:14:40.125Z,10.26
2023-03-22T08:19:51.299Z,10.28
2023-03-22T08:25:02.233Z,10.56
2023-03-22T08:30:11.268Z,10.86
2023-03-22T08:35:15.675Z,11.73
2023-03-22T08:40:23.057Z,11.01
2023-03-22T08:45:31.601Z,11.77
2023-03-22T08:50:43.688Z,11.39
2023-03-22T08:56:01.839Z,10.65
2023-03-22T09:01:21.579Z,11.41
2023-03-22T09:06:30.895Z,11.38
2023-03-22T09:11:37.343Z,10.18
2023-03-22T09:16:41.580Z,10.67
2023-03-22T09:21:46.060Z,11.52
2023-03-22T09:27:04.669Z,12.93
2023-03-22T09:32:09.206Z,11.42
2023-03-22T09:37:16.218Z,11.99
2023-03-22T09:42:34.577Z,11.52
2023-03-22T09:47:45.861Z,12.63
2023-03-22T09:52:50.927Z,12.87
2023-03-22T09:58:04.226Z,13.85
2023-03-22T10:03:21.976Z,13.93
2023-03-22T10:08:35.352Z,13.66
2023-03-22T10:13:47.014Z,14.16
2023-03-22T10:18:53.633Z,13.83
2023-03-22T10:24:02.780Z,12.80
2023-03-22T10:29:14.822Z,14.61
2023-03-22T10:34:23.023Z,13.92
2023-03-22T10:39:33.695Z,14.16
2023-03-22T10:44:49.038Z,15.42
2023-03-22T10:49:57.281Z,15.08
2023-03-22T10:55:04.478Z,14.98
2023-03-22T11:00:17.713Z,14.62
2023-03-22T11:05:25.881Z,14.95
2023-03-22T11:10:32.900Z,15.72
2023-03-22T11:15:42.069Z,16.18
2023-03-22T11:20:57.047Z,15.29
2023-03-22T11:26:07.153Z,15.79
2023-03-22T11:31:14.599Z,15.25
2023-03-22T11:36:20.191Z,16.08
2023-03-22T11:41:25.762Z,15.86
2023-03-22T11:46:32.882Z,17.22
2023-03-22T11:51:39.667Z,17.16
2023-03-22T11:56:47.318Z,18.77
2023-03-22T12:01:59.718Z,19.55
2023-03-22T12:07:12.022Z,21.02
2023-03-22T12:12:20.720Z,22.01
2023-03-22T12:17:33.614Z,17.42
2023-03-22T12:22:43.327Z,18.29
2023-03-22T12:27:52.718Z,18.45
2023-03-22T12:33:04.913Z,20.48
2023-03-22T12:38:28.250Z,16.67
2023-03-22T12:43:44.564Z,16.15
2023-03-22T12:48:53.227Z,15.57
2023-03-22T12:53:59.962Z,17.12
2023-03-22T12:59:07.017Z,17.30
2023-03-22T13:04:50.975Z,16.69
2023-03-22T13:09:55.041Z,17.97
2023-03-22T13:15:02.974Z,18.51
2023-03-22T13:20:27.825Z,17.17
2023-03-22T13:25:36.662Z,16.95
2023-03-22T13:30:52.689Z,16.44
2023-03-22T13:36:02.030Z,16.31
2023-03-22T13:41:09.473Z,18.00
2023-03-22T13:46:28.426Z,20.04
2023-03-22T13:51:35.216Z,20.72
2023-03-22T13:56:52.963Z,20.40
2023-03-22T14:02:01.648Z,19.98
2023-03-22T14:07:14.953Z,19.23
2023-03-22T14:12:23.839Z,19.33
2023-03-22T14:17:39.957Z,18.55
